Kakawis, Canada
Current Conditions -  °F | °C
As of 2:00 PM on Wednesday 22 Oct 2014 (Local Time) from CYAZ Reporting Station
Overcast Overcast  
Wind Chill: 54°   Ceiling: 3000
Heat Index: 54°   Visibility: 15mi
Dew Point: 52°   Wind: 5mph
Humidity: 94%   Direction: 140°SE
Pressure: 29.58"   Gusts: NA
Location:  49.19°N, 125.91°W
Report Text: CYAZ 222100Z 14004KT 15SM FEW020TCU OVC030 12/11 A2958 RMK TCU2SC6 WND ESTD SLP018 DENSITY ALT 100FT
Loading
Personal Weather Stations






























Interactive Weather Map
Tropical Storm Tracking
New forecast layout! Learn more

10-Day Weather Forecast

Advertisements
Track Severe Weather on mobile